Surgut, Russia
Current Conditions -  °F | °C
As of 7:30 PM on Tuesday 27 Jan 2015 (Local Time) from USRR Reporting Station
Overcast Overcast  
Wind Chill: -3°   Ceiling: 700
Heat Index: 14°   Visibility: 4mi
Dew Point: 12°   Wind: 18mph
Humidity: 93%   Direction: 280°W
Pressure: 30"   Gusts: NA
Location:  61.25°N, 73.42°E
Report Text: USRR 271430Z 28008MPS 6000 OVC007 M10/M11 Q1016 TEMPO OVC007RMK OBST OBSC QFE757 25////32
Loading
Personal Weather Stations






























Interactive Weather Map New forecast layout! Learn more

10-Day Weather Forecast

Advertisements
Track Severe Weather on mobile